createdAt,value
2017-01-03T00:01:06.213Z,0
2017-01-03T00:02:16.630Z,0
2017-01-03T00:03:26.907Z,0
2017-01-03T00:04:37.171Z,0
2017-01-03T00:05:46.677Z,0
2017-01-03T00:06:56.522Z,0
2017-01-03T00:08:06.365Z,0
2017-01-03T00:09:16.681Z,0
2017-01-03T00:10:26.135Z,0
2017-01-03T00:11:36.492Z,0
2017-01-03T00:12:45.990Z,0
2017-01-03T00:13:55.964Z,0
2017-01-03T00:15:05.430Z,0
2017-01-03T00:16:15.289Z,0
2017-01-03T00:17:25.333Z,0
2017-01-03T00:18:35.590Z,0
2017-01-03T00:19:45.934Z,0
2017-01-03T00:20:56.175Z,0
2017-01-03T00:22:06.005Z,0
2017-01-03T00:23:15.928Z,0
2017-01-03T00:24:25.449Z,0
2017-01-03T00:25:35.678Z,0
2017-01-03T00:26:45.520Z,0
2017-01-03T00:27:55.423Z,0
2017-01-03T00:29:05.660Z,0
2017-01-03T00:30:15.898Z,0
2017-01-03T00:31:25.909Z,0
2017-01-03T00:32:35.786Z,0
2017-01-03T00:33:45.711Z,0
2017-01-03T00:34:55.558Z,0
2017-01-03T00:36:06.022Z,0
2017-01-03T00:37:16.273Z,0
2017-01-03T00:38:26.232Z,0
2017-01-03T00:39:36.076Z,0
2017-01-03T00:40:46.441Z,0
2017-01-03T00:41:56.702Z,0
2017-01-03T00:43:06.596Z,0
2017-01-03T00:44:16.032Z,0
2017-01-03T00:45:25.466Z,0
2017-01-03T00:46:35.290Z,0
2017-01-03T00:47:45.201Z,0
2017-01-03T00:48:55.435Z,0
2017-01-03T00:50:05.709Z,0
2017-01-03T00:51:15.964Z,0
2017-01-03T00:52:26.350Z,0
2017-01-03T00:53:35.763Z,0
2017-01-03T00:54:45.602Z,0
2017-01-03T00:55:55.462Z,0
2017-01-03T00:57:05.782Z,0
2017-01-03T00:58:15.642Z,0
2017-01-03T00:59:25.924Z,0
2017-01-03T01:00:36.189Z,0
2017-01-03T01:01:46.066Z,0
2017-01-03T01:02:56.371Z,0
2017-01-03T01:04:06.621Z,0
2017-01-03T01:05:16.859Z,0
2017-01-03T01:06:27.170Z,0
2017-01-03T01:07:37.569Z,0
2017-01-03T01:08:47.625Z,0
2017-01-03T01:09:57.498Z,0
2017-01-03T01:11:07.325Z,0
2017-01-03T01:12:17.593Z,0
2017-01-03T01:13:27.449Z,0
2017-01-03T01:14:37.693Z,0
2017-01-03T01:15:47.521Z,0
2017-01-03T01:16:57.355Z,0
2017-01-03T01:18:07.173Z,0
2017-01-03T01:19:16.666Z,0
2017-01-03T01:20:26.516Z,0
2017-01-03T01:21:36.761Z,0
2017-01-03T01:22:47.179Z,0
2017-01-03T01:23:57.470Z,0
2017-01-03T01:25:07.728Z,0
2017-01-03T01:26:17.293Z,0
2017-01-03T01:27:27.157Z,0
2017-01-03T01:28:37.407Z,0
2017-01-03T01:29:47.643Z,0
2017-01-03T01:30:57.511Z,0
2017-01-03T01:32:07.769Z,0
2017-01-03T01:33:17.610Z,0
2017-01-03T01:34:27.460Z,0
2017-01-03T01:35:37.705Z,0
2017-01-03T01:37:19.699Z,0
2017-01-03T01:38:30.093Z,0
2017-01-03T01:39:40.751Z,0
2017-01-03T01:40:51.019Z,0
2017-01-03T01:42:00.869Z,0
2017-01-03T01:43:10.698Z,0
2017-01-03T01:44:20.535Z,0
2017-01-03T01:45:30.852Z,0
2017-01-03T01:46:41.091Z,0
2017-01-03T01:47:50.987Z,0
2017-01-03T01:49:00.820Z,0
2017-01-03T01:50:11.076Z,0
2017-01-03T01:51:21.473Z,0
2017-01-03T01:52:31.696Z,0
2017-01-03T01:53:41.955Z,0
2017-01-03T01:54:51.822Z,0
2017-01-03T01:56:01.694Z,0
2017-01-03T01:57:12.099Z,0
2017-01-03T01:58:22.437Z,0
2017-01-03T01:59:32.327Z,0
2017-01-03T02:00:42.561Z,0
2017-01-03T02:01:52.429Z,0
2017-01-03T02:03:01.857Z,0
2017-01-03T02:04:11.733Z,0
2017-01-03T02:05:22.011Z,0
2017-01-03T02:06:32.326Z,0
2017-01-03T02:07:42.567Z,0
2017-01-03T02:08:53.418Z,0
2017-01-03T02:10:03.757Z,0
2017-01-03T02:11:13.258Z,0
2017-01-03T02:12:23.125Z,0
2017-01-03T02:13:32.618Z,0
2017-01-03T02:14:42.847Z,0
2017-01-03T02:15:53.406Z,0
2017-01-03T02:17:03.222Z,0
2017-01-03T02:18:12.689Z,0
2017-01-03T02:19:22.658Z,0
2017-01-03T02:20:32.739Z,0
2017-01-03T02:21:42.586Z,0
2017-01-03T02:22:52.524Z,0
2017-01-03T02:24:02.782Z,0
2017-01-03T02:25:13.117Z,0
2017-01-03T02:26:23.354Z,0
2017-01-03T02:27:33.640Z,0
2017-01-03T02:28:43.966Z,0
2017-01-03T02:29:54.372Z,0
2017-01-03T02:31:04.640Z,0
2017-01-03T02:32:14.958Z,0
2017-01-03T02:33:25.318Z,0
2017-01-03T02:34:34.754Z,0
2017-01-03T02:35:45.131Z,0
2017-01-03T02:36:55.383Z,0
2017-01-03T02:38:05.447Z,0
2017-01-03T02:39:15.281Z,0
2017-01-03T02:40:24.810Z,0
2017-01-03T02:41:34.670Z,0
2017-01-03T02:42:44.945Z,0
2017-01-03T02:43:55.181Z,0
2017-01-03T02:45:05.447Z,0
2017-01-03T02:46:15.311Z,0
2017-01-03T02:47:25.645Z,0
2017-01-03T02:48:35.767Z,0
2017-01-03T02:49:45.680Z,0
2017-01-03T02:50:55.560Z,0
2017-01-03T02:52:05.803Z,0
2017-01-03T02:53:16.203Z,0
2017-01-03T02:54:26.049Z,0
2017-01-03T02:55:36.296Z,0
2017-01-03T02:56:46.625Z,0
2017-01-03T02:57:56.923Z,0
2017-01-03T02:59:07.151Z,0
2017-01-03T03:00:16.177Z,0
2017-01-03T03:01:26.416Z,0
2017-01-03T03:02:36.689Z,0
2017-01-03T03:03:46.926Z,0
2017-01-03T03:04:57.170Z,0
2017-01-03T03:06:07.473Z,0
2017-01-03T03:07:16.501Z,0
2017-01-03T03:08:26.738Z,0
2017-01-03T03:09:36.180Z,0
2017-01-03T03:10:45.632Z,0
2017-01-03T03:11:55.464Z,0
2017-01-03T03:13:05.323Z,0
2017-01-03T03:14:15.163Z,0
2017-01-03T03:15:25.472Z,0
2017-01-03T03:16:35.661Z,0
2017-01-03T03:17:45.944Z,0
2017-01-03T03:18:55.819Z,0
2017-01-03T03:20:04.852Z,0
2017-01-03T03:21:14.786Z,0
2017-01-03T03:22:25.037Z,0
2017-01-03T03:23:34.875Z,0
2017-01-03T03:24:44.715Z,0
2017-01-03T03:25:54.287Z,0
2017-01-03T03:27:04.212Z,0
2017-01-03T03:28:14.094Z,0
2017-01-03T03:29:24.349Z,0
2017-01-03T03:30:34.209Z,0
2017-01-03T03:31:44.445Z,0
2017-01-03T03:32:53.916Z,0
2017-01-03T03:34:04.163Z,0
2017-01-03T03:35:14.399Z,0
2017-01-03T03:36:24.675Z,0
2017-01-03T03:37:34.501Z,0
2017-01-03T03:38:43.932Z,0
2017-01-03T03:39:53.817Z,0
2017-01-03T03:41:03.264Z,0
2017-01-03T03:42:13.484Z,0
2017-01-03T03:43:23.713Z,0
2017-01-03T03:44:34.012Z,0
2017-01-03T03:45:43.088Z,0
2017-01-03T03:46:53.331Z,0
2017-01-03T03:48:03.169Z,0
2017-01-03T03:49:13.493Z,0
2017-01-03T03:50:23.730Z,0
2017-01-03T03:51:33.223Z,0
2017-01-03T03:52:43.170Z,0
2017-01-03T03:53:53.471Z,0
2017-01-03T03:55:03.579Z,0
2017-01-03T03:56:13.809Z,0
2017-01-03T03:57:23.672Z,0
2017-01-03T03:58:33.929Z,0
2017-01-03T03:59:43.348Z,0
2017-01-03T04:00:53.671Z,0
2017-01-03T04:02:04.365Z,0
2017-01-03T04:03:14.657Z,0
2017-01-03T04:04:24.920Z,0
2017-01-03T04:05:34.450Z,0
2017-01-03T04:06:44.739Z,0
2017-01-03T04:07:54.563Z,0
2017-01-03T04:09:03.992Z,0
2017-01-03T04:10:13.425Z,0
2017-01-03T04:11:23.668Z,0
2017-01-03T04:12:33.497Z,0
2017-01-03T04:13:43.755Z,0
2017-01-03T04:14:54.305Z,0
2017-01-03T04:16:03.797Z,0
2017-01-03T04:17:13.725Z,0
2017-01-03T04:18:23.653Z,0
2017-01-03T04:19:33.146Z,0
2017-01-03T04:20:42.995Z,0
2017-01-03T04:21:52.836Z,0
2017-01-03T04:23:02.716Z,0
2017-01-03T04:24:12.234Z,0
2017-01-03T04:25:22.114Z,0
2017-01-03T04:26:32.344Z,0
2017-01-03T04:27:42.234Z,0
2017-01-03T04:28:52.530Z,0
2017-01-03T04:30:02.860Z,0
2017-01-03T04:31:13.154Z,0
2017-01-03T04:32:23.063Z,0
2017-01-03T04:33:33.286Z,0
2017-01-03T04:34:43.212Z,0
2017-01-03T04:35:53.476Z,0
2017-01-03T04:37:03.701Z,0
2017-01-03T04:38:13.937Z,0
2017-01-03T04:39:24.179Z,0
2017-01-03T04:40:34.027Z,0
2017-01-03T04:41:43.863Z,0
2017-01-03T04:42:53.309Z,0
2017-01-03T04:44:03.168Z,0
2017-01-03T04:45:13.061Z,0
2017-01-03T04:46:22.556Z,0
2017-01-03T04:47:32.973Z,0
2017-01-03T04:48:43.481Z,0
2017-01-03T04:49:53.437Z,0
2017-01-03T04:51:03.283Z,0
2017-01-03T04:52:12.715Z,0
2017-01-03T04:53:22.143Z,0
2017-01-03T04:54:32.382Z,0
2017-01-03T04:55:42.243Z,0
2017-01-03T04:56:52.086Z,0
2017-01-03T04:58:02.343Z,0
2017-01-03T04:59:12.400Z,0
2017-01-03T05:00:22.754Z,0
2017-01-03T05:01:33.031Z,0
2017-01-03T05:02:43.306Z,0
2017-01-03T05:03:53.178Z,0
2017-01-03T05:05:03.407Z,0
2017-01-03T05:06:13.241Z,0
2017-01-03T05:07:22.690Z,0
2017-01-03T05:08:32.589Z,0
2017-01-03T05:09:42.416Z,0
2017-01-03T05:10:52.711Z,0
2017-01-03T05:12:02.973Z,0
2017-01-03T05:13:12.515Z,0
2017-01-03T05:14:22.824Z,0
2017-01-03T05:15:33.151Z,0
2017-01-03T05:16:43.443Z,0
2017-01-03T05:17:53.685Z,0
2017-01-03T05:19:03.594Z,0
2017-01-03T05:20:14.004Z,0
2017-01-03T05:21:24.225Z,0
2017-01-03T05:22:34.067Z,0
2017-01-03T05:23:43.929Z,0
2017-01-03T05:24:53.827Z,0
2017-01-03T05:26:04.052Z,0
2017-01-03T05:27:13.528Z,0
2017-01-03T05:28:23.414Z,0
2017-01-03T05:29:33.361Z,0
2017-01-03T05:30:43.611Z,0
2017-01-03T05:31:53.460Z,0
2017-01-03T05:33:02.891Z,0
2017-01-03T05:34:13.118Z,0
2017-01-03T05:35:22.587Z,0
2017-01-03T05:36:32.499Z,0
2017-01-03T05:37:42.411Z,0
2017-01-03T05:38:52.731Z,0
2017-01-03T05:40:02.639Z,0
2017-01-03T05:41:11.736Z,0
2017-01-03T05:42:20.816Z,0
2017-01-03T05:43:31.114Z,0
2017-01-03T05:44:41.415Z,0
2017-01-03T05:45:51.303Z,0
2017-01-03T05:47:00.817Z,0
2017-01-03T05:48:11.213Z,0
2017-01-03T05:49:21.465Z,0
2017-01-03T05:50:31.461Z,0
2017-01-03T05:51:41.344Z,0
2017-01-03T05:52:51.631Z,0
2017-01-03T05:54:01.106Z,0
2017-01-03T05:55:10.951Z,0
2017-01-03T05:56:21.236Z,0
2017-01-03T05:57:31.539Z,0
2017-01-03T05:58:41.833Z,0
2017-01-03T05:59:52.108Z,0
2017-01-03T06:01:01.942Z,0
2017-01-03T06:02:11.490Z,0
2017-01-03T06:03:21.461Z,0
2017-01-03T06:04:30.876Z,0
2017-01-03T06:05:40.730Z,0
2017-01-03T06:06:50.217Z,0
2017-01-03T06:08:00.454Z,0
2017-01-03T06:09:10.888Z,0
2017-01-03T06:10:20.493Z,0
2017-01-03T06:11:30.328Z,0
2017-01-03T06:12:39.756Z,0
2017-01-03T06:13:49.201Z,0
2017-01-03T06:14:59.523Z,0
2017-01-03T06:16:09.357Z,0
2017-01-03T06:17:19.614Z,0
2017-01-03T06:18:29.917Z,0
2017-01-03T06:19:40.163Z,0
2017-01-03T06:20:50.405Z,0
2017-01-03T06:22:00.263Z,0
2017-01-03T06:23:10.521Z,0
2017-01-03T06:24:20.349Z,0
2017-01-03T06:25:30.651Z,0
2017-01-03T06:26:40.559Z,0
2017-01-03T06:27:50.794Z,0
2017-01-03T06:29:01.210Z,0
2017-01-03T06:30:11.077Z,0
2017-01-03T06:31:20.911Z,0
2017-01-03T06:32:31.213Z,0
2017-01-03T06:33:41.478Z,0
2017-01-03T06:34:51.306Z,0
2017-01-03T06:36:01.191Z,0
2017-01-03T06:37:11.053Z,0
2017-01-03T06:38:20.898Z,0
2017-01-03T06:39:30.369Z,0
2017-01-03T06:40:40.609Z,0
2017-01-03T06:41:50.455Z,0
2017-01-03T06:43:00.799Z,0
2017-01-03T06:44:11.116Z,0
2017-01-03T06:45:20.985Z,0
2017-01-03T06:46:30.834Z,0
2017-01-03T06:47:40.691Z,0
2017-01-03T06:48:50.518Z,0
2017-01-03T06:49:59.976Z,0
2017-01-03T06:51:09.826Z,0
2017-01-03T06:52:20.059Z,0
2017-01-03T06:53:29.082Z,0
2017-01-03T06:54:38.997Z,0
2017-01-03T06:55:49.225Z,0
2017-01-03T06:56:59.669Z,0
2017-01-03T06:58:09.549Z,0
2017-01-03T06:59:19.883Z,0
2017-01-03T07:00:29.747Z,0
2017-01-03T07:01:40.161Z,0
2017-01-03T07:02:50.421Z,0
2017-01-03T07:03:59.432Z,0
2017-01-03T07:05:09.662Z,0
2017-01-03T07:06:19.910Z,0
2017-01-03T07:07:30.192Z,0
2017-01-03T07:08:40.422Z,0
2017-01-03T07:09:50.681Z,0
2017-01-03T07:11:00.927Z,0
2017-01-03T07:12:11.201Z,0
2017-01-03T07:13:21.526Z,0
2017-01-03T07:14:31.356Z,0
2017-01-03T07:15:41.657Z,5
2017-01-03T07:16:51.516Z,5
2017-01-03T07:18:00.946Z,5
2017-01-03T07:19:10.843Z,5
2017-01-03T07:20:21.136Z,10
2017-01-03T07:21:30.576Z,10
2017-01-03T07:22:40.848Z,10
2017-01-03T07:23:50.702Z,10
2017-01-03T07:25:00.513Z,10
2017-01-03T07:26:10.783Z,10
2017-01-03T07:27:21.072Z,10
2017-01-03T07:28:31.456Z,15
2017-01-03T07:29:41.696Z,15
2017-01-03T07:30:51.964Z,15
2017-01-03T07:32:02.340Z,20
2017-01-03T07:33:12.609Z,20
2017-01-03T07:34:22.881Z,25
2017-01-03T07:35:32.468Z,25
2017-01-03T07:36:42.342Z,25
2017-01-03T07:37:52.578Z,25
2017-01-03T07:39:02.814Z,30
2017-01-03T07:40:13.072Z,30
2017-01-03T07:41:22.916Z,30
2017-01-03T07:42:33.156Z,35
2017-01-03T07:43:43.418Z,35
2017-01-03T07:44:53.292Z,40
2017-01-03T07:46:03.546Z,35
2017-01-03T07:47:13.785Z,40
2017-01-03T07:48:24.049Z,35
2017-01-03T07:49:33.885Z,35
2017-01-03T07:50:43.789Z,35
2017-01-03T07:51:54.035Z,30
2017-01-03T07:53:03.873Z,30
2017-01-03T07:54:14.109Z,35
2017-01-03T07:55:23.977Z,40
2017-01-03T07:56:34.267Z,45
2017-01-03T07:57:44.177Z,45
2017-01-03T07:58:54.425Z,50
2017-01-03T08:00:04.767Z,50
2017-01-03T08:01:15.053Z,55
2017-01-03T08:02:24.988Z,55
2017-01-03T08:03:35.261Z,50
2017-01-03T08:04:45.503Z,50
2017-01-03T08:05:55.752Z,60
2017-01-03T08:07:05.699Z,70
2017-01-03T08:08:15.924Z,55
2017-01-03T08:09:25.384Z,55
2017-01-03T08:10:35.692Z,60
2017-01-03T08:11:46.040Z,60
2017-01-03T08:12:56.312Z,60
2017-01-03T08:14:06.138Z,70
2017-01-03T08:15:16.036Z,75
2017-01-03T08:16:26.283Z,85
2017-01-03T08:17:36.545Z,75
2017-01-03T08:18:46.375Z,65
2017-01-03T08:19:56.600Z,70
2017-01-03T08:21:06.901Z,80
2017-01-03T08:22:17.186Z,70
2017-01-03T08:23:27.460Z,75
2017-01-03T08:24:37.699Z,70
2017-01-03T08:25:47.958Z,70
2017-01-03T08:26:57.832Z,85
2017-01-03T08:28:08.165Z,85
2017-01-03T08:29:18.417Z,95
2017-01-03T08:30:28.836Z,100
2017-01-03T08:31:38.668Z,95
2017-01-03T08:32:48.945Z,95
2017-01-03T08:33:59.204Z,105
2017-01-03T08:35:09.454Z,105
2017-01-03T08:36:19.397Z,100
2017-01-03T08:37:29.258Z,100
2017-01-03T08:38:39.546Z,105
2017-01-03T08:39:49.866Z,110
2017-01-03T08:41:00.137Z,110
2017-01-03T08:42:10.361Z,110
2017-01-03T08:43:20.643Z,95
2017-01-03T08:44:31.022Z,95
2017-01-03T08:45:40.845Z,115
2017-01-03T08:46:50.720Z,115
2017-01-03T08:48:00.560Z,125
2017-01-03T08:49:10.396Z,120
2017-01-03T08:50:20.358Z,130
2017-01-03T08:51:30.649Z,135
2017-01-03T08:52:40.910Z,140
2017-01-03T08:53:51.196Z,140
2017-01-03T08:55:01.499Z,140
2017-01-03T08:56:11.368Z,145
2017-01-03T08:57:21.650Z,150
2017-01-03T08:58:31.914Z,150
2017-01-03T08:59:42.244Z,145
2017-01-03T09:00:52.503Z,140
2017-01-03T09:02:02.354Z,155
2017-01-03T09:03:12.591Z,165
2017-01-03T09:04:22.854Z,175
2017-01-03T09:05:33.294Z,195
2017-01-03T09:06:43.145Z,195
2017-01-03T09:07:53.415Z,195
2017-01-03T09:09:03.263Z,180
2017-01-03T09:10:13.547Z,180
2017-01-03T09:11:23.831Z,180
2017-01-03T09:12:34.096Z,175
2017-01-03T09:13:44.357Z,190
2017-01-03T09:14:54.627Z,205
2017-01-03T09:16:04.898Z,190
2017-01-03T09:17:14.820Z,175
2017-01-03T09:18:25.054Z,160
2017-01-03T09:19:35.465Z,150
2017-01-03T09:20:45.750Z,155
2017-01-03T09:21:56.035Z,160
2017-01-03T09:23:06.421Z,165
2017-01-03T09:24:16.674Z,150
2017-01-03T09:25:26.950Z,140
2017-01-03T09:26:37.220Z,135
2017-01-03T09:27:46.674Z,150
2017-01-03T09:28:56.909Z,160
2017-01-03T09:30:07.210Z,165
2017-01-03T09:31:17.055Z,165
2017-01-03T09:32:27.306Z,165
2017-01-03T09:33:37.596Z,170
2017-01-03T09:34:47.881Z,165
2017-01-03T09:35:58.124Z,160
2017-01-03T09:37:08.379Z,175
2017-01-03T09:38:18.214Z,170
2017-01-03T09:39:28.514Z,165
2017-01-03T09:40:38.837Z,145
2017-01-03T09:41:49.167Z,165
2017-01-03T09:42:59.496Z,155
2017-01-03T09:44:09.737Z,160
2017-01-03T09:45:19.595Z,165
2017-01-03T09:46:29.922Z,170
2017-01-03T09:47:39.812Z,180
2017-01-03T09:48:49.239Z,185
2017-01-03T09:49:59.477Z,180
2017-01-03T09:51:09.763Z,185
2017-01-03T09:52:20.009Z,195
2017-01-03T09:53:29.872Z,190
2017-01-03T09:54:39.710Z,185
2017-01-03T09:55:50.023Z,170
2017-01-03T09:57:00.401Z,165
2017-01-03T09:58:10.628Z,155
2017-01-03T09:59:20.507Z,175
2017-01-03T10:00:30.753Z,185
2017-01-03T10:01:40.196Z,170
2017-01-03T10:02:50.068Z,135
2017-01-03T10:04:00.347Z,170
2017-01-03T10:05:10.680Z,165
2017-01-03T10:06:20.583Z,160
2017-01-03T10:07:30.849Z,195
2017-01-03T10:08:41.096Z,205
2017-01-03T10:09:51.459Z,205
2017-01-03T10:11:01.700Z,200
2017-01-03T10:12:11.945Z,180
2017-01-03T10:13:22.185Z,200
2017-01-03T10:14:32.446Z,210
2017-01-03T10:15:42.684Z,205
2017-01-03T10:16:53.035Z,205
2017-01-03T10:18:03.271Z,200
2017-01-03T10:19:13.142Z,200
2017-01-03T10:20:22.977Z,195
2017-01-03T10:21:32.833Z,200
2017-01-03T10:22:43.140Z,200
2017-01-03T10:23:53.386Z,195
2017-01-03T10:25:03.606Z,185
2017-01-03T10:26:13.486Z,185
2017-01-03T10:27:23.735Z,190
2017-01-03T10:28:33.978Z,175
2017-01-03T10:29:44.251Z,175
2017-01-03T10:30:54.639Z,170
2017-01-03T10:32:04.907Z,170
2017-01-03T10:33:14.749Z,170
2017-01-03T10:34:24.617Z,160
2017-01-03T10:35:34.887Z,175
2017-01-03T10:36:45.136Z,185
2017-01-03T10:37:55.467Z,190
2017-01-03T10:39:05.712Z,205
2017-01-03T10:40:16.007Z,215
2017-01-03T10:41:26.282Z,225
2017-01-03T10:42:36.104Z,260
2017-01-03T10:43:45.546Z,260
2017-01-03T10:44:55.782Z,255
2017-01-03T10:46:05.221Z,250
2017-01-03T10:47:15.457Z,240
2017-01-03T10:48:25.815Z,235
2017-01-03T10:49:36.227Z,225
2017-01-03T10:50:46.457Z,215
2017-01-03T10:51:56.706Z,210
2017-01-03T10:53:06.149Z,215
2017-01-03T10:54:16.090Z,220
2017-01-03T10:55:26.336Z,220
2017-01-03T10:56:36.780Z,220
2017-01-03T10:57:46.659Z,220
2017-01-03T10:58:56.959Z,220
2017-01-03T11:00:06.807Z,220
2017-01-03T11:01:16.708Z,225
2017-01-03T11:02:26.949Z,220
2017-01-03T11:03:36.379Z,205
2017-01-03T11:04:46.615Z,205
2017-01-03T11:05:56.855Z,205
2017-01-03T11:07:07.220Z,210
2017-01-03T11:08:17.548Z,210
2017-01-03T11:09:27.905Z,200
2017-01-03T11:10:38.218Z,195
2017-01-03T11:11:48.474Z,195
2017-01-03T11:12:58.725Z,200
2017-01-03T11:14:08.963Z,190
2017-01-03T11:15:19.360Z,180
2017-01-03T11:16:29.698Z,210
2017-01-03T11:17:39.926Z,220
2017-01-03T11:18:50.177Z,225
2017-01-03T11:20:00.040Z,215
2017-01-03T11:21:09.863Z,210
2017-01-03T11:22:20.240Z,245
2017-01-03T11:23:30.505Z,260
2017-01-03T11:24:40.495Z,270
2017-01-03T11:25:50.744Z,265
2017-01-03T11:27:00.979Z,255
2017-01-03T11:28:11.210Z,270
2017-01-03T11:29:21.567Z,270
2017-01-03T11:30:31.833Z,310
2017-01-03T11:31:41.721Z,295
2017-01-03T11:32:52.092Z,295
2017-01-03T11:34:02.345Z,240
2017-01-03T11:35:12.584Z,280
2017-01-03T11:36:22.460Z,280
2017-01-03T11:37:32.378Z,265
2017-01-03T11:38:42.754Z,250
2017-01-03T11:39:52.739Z,255
2017-01-03T11:41:03.102Z,225
2017-01-03T11:42:12.980Z,240
2017-01-03T11:43:23.259Z,245
2017-01-03T11:44:33.102Z,235
2017-01-03T11:45:43.352Z,260
2017-01-03T11:46:53.686Z,260
2017-01-03T11:48:03.930Z,275
2017-01-03T11:49:14.184Z,280
2017-01-03T11:50:24.455Z,285
2017-01-03T11:51:34.694Z,275
2017-01-03T11:52:44.582Z,270
2017-01-03T11:53:54.603Z,225
2017-01-03T11:55:04.868Z,245
2017-01-03T11:56:15.328Z,245
2017-01-03T11:57:25.597Z,260
2017-01-03T11:58:35.893Z,280
2017-01-03T11:59:46.238Z,265
2017-01-03T12:00:56.556Z,250
2017-01-03T12:02:06.799Z,265
2017-01-03T12:03:17.047Z,255
2017-01-03T12:04:26.882Z,265
2017-01-03T12:05:37.125Z,260
2017-01-03T12:06:47.463Z,265
2017-01-03T12:07:57.765Z,275
2017-01-03T12:09:08.043Z,300
2017-01-03T12:10:18.314Z,315
2017-01-03T12:11:28.611Z,320
2017-01-03T12:12:38.934Z,300
2017-01-03T12:13:48.827Z,285
2017-01-03T12:14:59.106Z,260
2017-01-03T12:16:09.345Z,220
2017-01-03T12:17:19.638Z,205
2017-01-03T12:18:29.095Z,200
2017-01-03T12:19:38.933Z,190
2017-01-03T12:20:48.424Z,205
2017-01-03T12:21:58.678Z,225
2017-01-03T12:23:08.507Z,240
2017-01-03T12:24:18.827Z,245
2017-01-03T12:25:29.156Z,250
2017-01-03T12:26:39.399Z,235
2017-01-03T12:27:49.422Z,215
2017-01-03T12:28:59.669Z,200
2017-01-03T12:30:09.899Z,185
2017-01-03T12:31:20.135Z,190
2017-01-03T12:32:30.416Z,175
2017-01-03T12:33:40.815Z,180
2017-01-03T12:34:50.680Z,180
2017-01-03T12:36:00.587Z,175
2017-01-03T12:37:10.431Z,170
2017-01-03T12:38:20.300Z,175
2017-01-03T12:39:30.188Z,185
2017-01-03T12:40:40.569Z,190
2017-01-03T12:41:50.018Z,165
2017-01-03T12:43:00.376Z,210
2017-01-03T12:44:10.216Z,180
2017-01-03T12:45:20.064Z,185
2017-01-03T12:46:29.985Z,180
2017-01-03T12:47:40.239Z,155
2017-01-03T12:48:50.085Z,140
2017-01-03T12:50:00.412Z,140
2017-01-03T12:51:10.651Z,150
2017-01-03T12:52:20.132Z,165
2017-01-03T12:53:30.392Z,140
2017-01-03T12:54:40.644Z,130
2017-01-03T12:55:50.892Z,125
2017-01-03T12:57:00.719Z,110
2017-01-03T12:58:10.566Z,105
2017-01-03T12:59:20.833Z,120
2017-01-03T13:00:31.069Z,130
2017-01-03T13:01:41.354Z,115
2017-01-03T13:02:51.957Z,115
2017-01-03T13:04:01.780Z,115
2017-01-03T13:05:12.029Z,115
2017-01-03T13:06:21.859Z,115
2017-01-03T13:07:32.147Z,115
2017-01-03T13:08:42.439Z,100
2017-01-03T13:09:52.722Z,105
2017-01-03T13:11:02.976Z,100
2017-01-03T13:12:13.206Z,95
2017-01-03T13:13:23.565Z,90
2017-01-03T13:14:33.815Z,90
2017-01-03T13:15:44.047Z,100
2017-01-03T13:16:53.879Z,95
2017-01-03T13:18:04.128Z,95
2017-01-03T13:19:14.381Z,80
2017-01-03T13:20:24.628Z,85
2017-01-03T13:21:34.637Z,95
2017-01-03T13:22:44.879Z,95
2017-01-03T13:23:54.864Z,100
2017-01-03T13:25:05.145Z,90
2017-01-03T13:26:15.468Z,105
2017-01-03T13:27:25.781Z,115
2017-01-03T13:28:36.098Z,95
2017-01-03T13:29:46.350Z,115
2017-01-03T13:30:56.633Z,95
2017-01-03T13:32:06.469Z,95
2017-01-03T13:33:16.355Z,95
2017-01-03T13:34:26.191Z,95
2017-01-03T13:35:36.526Z,85
2017-01-03T13:36:45.971Z,90
2017-01-03T13:37:55.839Z,90
2017-01-03T13:39:05.854Z,90
2017-01-03T13:40:16.098Z,85
2017-01-03T13:41:26.336Z,85
2017-01-03T13:42:36.168Z,85
2017-01-03T13:43:46.041Z,85
2017-01-03T13:44:56.436Z,75
2017-01-03T13:46:06.281Z,80
2017-01-03T13:47:16.185Z,80
2017-01-03T13:48:26.057Z,80
2017-01-03T13:49:36.328Z,80
2017-01-03T13:50:46.636Z,85
2017-01-03T13:51:57.037Z,90
2017-01-03T13:53:06.479Z,90
2017-01-03T13:54:16.751Z,100
2017-01-03T13:55:26.585Z,100
2017-01-03T13:56:36.845Z,100
2017-01-03T13:57:47.211Z,105
2017-01-03T13:58:57.104Z,110
2017-01-03T14:00:07.364Z,115
2017-01-03T14:01:17.628Z,125
2017-01-03T14:02:27.610Z,130
2017-01-03T14:03:37.871Z,125
2017-01-03T14:04:48.121Z,120
2017-01-03T14:05:58.399Z,115
2017-01-03T14:07:08.642Z,115
2017-01-03T14:08:18.914Z,120
2017-01-03T14:09:29.274Z,130
2017-01-03T14:10:39.525Z,130
2017-01-03T14:11:49.792Z,140
2017-01-03T14:12:59.676Z,140
2017-01-03T14:14:09.988Z,120
2017-01-03T14:15:20.309Z,110
2017-01-03T14:16:30.566Z,95
2017-01-03T14:17:40.799Z,85
2017-01-03T14:18:50.645Z,85
2017-01-03T14:20:00.908Z,75
2017-01-03T14:21:11.171Z,65
2017-01-03T14:22:21.019Z,60
2017-01-03T14:23:31.331Z,55
2017-01-03T14:24:41.567Z,60
2017-01-03T14:25:51.824Z,55
2017-01-03T14:27:02.173Z,50
2017-01-03T14:28:12.450Z,60
2017-01-03T14:29:22.711Z,50
2017-01-03T14:30:32.969Z,50
2017-01-03T14:31:43.215Z,50
2017-01-03T14:32:52.672Z,35
2017-01-03T14:34:03.042Z,35
2017-01-03T14:35:12.937Z,30
2017-01-03T14:36:23.283Z,35
2017-01-03T14:37:33.221Z,30
2017-01-03T14:38:43.056Z,30
2017-01-03T14:39:53.363Z,30
2017-01-03T14:41:03.230Z,25
2017-01-03T14:42:13.061Z,25
2017-01-03T14:43:23.420Z,25
2017-01-03T14:44:33.670Z,15
2017-01-03T14:45:43.523Z,15
2017-01-03T14:46:53.430Z,15
2017-01-03T14:48:03.673Z,20
2017-01-03T14:49:13.997Z,15
2017-01-03T14:50:23.862Z,10
2017-01-03T14:51:34.153Z,10
2017-01-03T14:52:44.007Z,10
2017-01-03T14:53:54.253Z,10
2017-01-03T14:55:04.844Z,10
2017-01-03T14:56:15.095Z,10
2017-01-03T14:57:25.060Z,5
2017-01-03T14:58:34.947Z,5
2017-01-03T14:59:44.815Z,5
2017-01-03T15:00:54.708Z,5
2017-01-03T15:02:05.017Z,5
2017-01-03T15:03:14.959Z,5
2017-01-03T15:04:25.297Z,5
2017-01-03T15:05:35.368Z,5
2017-01-03T15:06:45.643Z,5
2017-01-03T15:07:55.992Z,5
2017-01-03T15:09:06.263Z,5
2017-01-03T15:10:16.145Z,5
2017-01-03T15:11:26.042Z,5
2017-01-03T15:12:35.951Z,5
2017-01-03T15:13:46.337Z,0
2017-01-03T15:14:56.336Z,0
2017-01-03T15:16:06.179Z,5
2017-01-03T15:17:16.633Z,0
2017-01-03T15:18:26.212Z,0
2017-01-03T15:19:36.704Z,0
2017-01-03T15:20:46.976Z,0
2017-01-03T15:21:56.921Z,0
2017-01-03T15:23:07.243Z,0
2017-01-03T15:24:17.559Z,0
2017-01-03T15:25:27.412Z,0
2017-01-03T15:26:36.963Z,0
2017-01-03T15:27:47.330Z,0
2017-01-03T15:28:57.818Z,0
2017-01-03T15:30:08.421Z,0
2017-01-03T15:31:19.000Z,0
2017-01-03T15:32:28.508Z,0
2017-01-03T15:33:39.026Z,0
2017-01-03T15:34:49.687Z,0
2017-01-03T15:36:00.166Z,0
2017-01-03T15:37:10.658Z,0
2017-01-03T15:38:21.066Z,0
2017-01-03T15:39:30.990Z,0
2017-01-03T15:40:41.878Z,0
2017-01-03T15:41:52.695Z,0
2017-01-03T15:43:03.294Z,0
2017-01-03T15:44:13.748Z,0
2017-01-03T15:45:24.315Z,0
2017-01-03T15:46:34.954Z,0
2017-01-03T15:47:45.009Z,0
2017-01-03T15:48:55.341Z,0
2017-01-03T15:50:05.905Z,0
2017-01-03T15:51:16.204Z,0
2017-01-03T15:52:26.590Z,0
2017-01-03T15:53:37.153Z,0
2017-01-03T15:54:47.484Z,0
2017-01-03T15:55:58.083Z,0
2017-01-03T15:57:08.559Z,0
2017-01-03T15:58:19.067Z,0
2017-01-03T15:59:29.728Z,0
2017-01-03T16:00:39.900Z,0
2017-01-03T16:01:50.632Z,0
2017-01-03T16:03:01.259Z,0
2017-01-03T16:04:12.421Z,0
2017-01-03T16:05:23.128Z,0
2017-01-03T16:06:33.816Z,0
2017-01-03T16:07:44.611Z,0
2017-01-03T16:08:55.739Z,0
2017-01-03T16:10:06.127Z,0
2017-01-03T16:11:16.681Z,0
2017-01-03T16:12:27.144Z,0
2017-01-03T16:13:38.024Z,0
2017-01-03T16:14:48.772Z,0
2017-01-03T16:15:59.526Z,0
2017-01-03T16:17:09.711Z,0
2017-01-03T16:18:20.771Z,0
2017-01-03T16:19:31.664Z,0
2017-01-03T16:20:42.613Z,0
2017-01-03T16:21:53.795Z,0
2017-01-03T16:23:05.331Z,0
2017-01-03T16:24:15.673Z,0
2017-01-03T16:25:26.857Z,0
2017-01-03T16:26:38.377Z,0
2017-01-03T16:27:48.641Z,0
2017-01-03T16:28:59.323Z,0
2017-01-03T16:30:10.166Z,0
2017-01-03T16:31:20.190Z,0
2017-01-03T16:32:30.774Z,0
2017-01-03T16:33:42.170Z,0
2017-01-03T16:34:53.128Z,0
2017-01-03T16:36:03.692Z,0
2017-01-03T16:37:14.012Z,0
2017-01-03T16:38:24.605Z,0
2017-01-03T16:39:35.494Z,0
2017-01-03T16:40:45.943Z,0
2017-01-03T16:41:56.298Z,0
2017-01-03T16:43:07.095Z,0
2017-01-03T16:44:17.878Z,0
2017-01-03T16:45:28.654Z,0
2017-01-03T16:46:40.072Z,0
2017-01-03T16:47:50.796Z,0
2017-01-03T16:49:02.844Z,0
2017-01-03T16:50:13.470Z,0